sensor_id;sensor_type;location;lat;lon;timestamp;P1;durP1;ratioP1;P2;durP2;ratioP2
81191;SDS011;70665;47.652;-2.730;2023-07-24T00:00:40;6.45;;;2.22;;
81191;SDS011;70665;47.652;-2.730;2023-07-24T00:05:31;6.28;;;2.53;;
81191;SDS011;70665;47.652;-2.730;2023-07-24T00:10:22;4.32;;;2.10;;
81191;SDS011;70665;47.652;-2.730;2023-07-24T00:12:48;5.25;;;2.30;;
81191;SDS011;70665;47.652;-2.730;2023-07-24T00:15:14;9.27;;;2.53;;
81191;SDS011;70665;47.652;-2.730;2023-07-24T00:17:39;4.82;;;2.35;;
81191;SDS011;70665;47.652;-2.730;2023-07-24T00:22:31;5.13;;;2.20;;
81191;SDS011;70665;47.652;-2.730;2023-07-24T00:24:57;5.63;;;2.40;;
81191;SDS011;70665;47.652;-2.730;2023-07-24T00:29:48;5.75;;;2.28;;
81191;SDS011;70665;47.652;-2.730;2023-07-24T00:32:14;6.05;;;1.83;;
81191;SDS011;70665;47.652;-2.730;2023-07-24T00:37:05;6.05;;;2.25;;
81191;SDS011;70665;47.652;-2.730;2023-07-24T00:39:31;7.57;;;2.17;;
81191;SDS011;70665;47.652;-2.730;2023-07-24T00:44:23;7.70;;;3.55;;
81191;SDS011;70665;47.652;-2.730;2023-07-24T00:46:48;6.90;;;2.47;;
81191;SDS011;70665;47.652;-2.730;2023-07-24T00:49:14;5.82;;;2.15;;
81191;SDS011;70665;47.652;-2.730;2023-07-24T00:51:41;9.45;;;2.63;;
81191;SDS011;70665;47.652;-2.730;2023-07-24T00:54:09;8.05;;;2.50;;
81191;SDS011;70665;47.652;-2.730;2023-07-24T00:56:36;8.57;;;2.35;;
81191;SDS011;70665;47.652;-2.730;2023-07-24T01:01:28;11.02;;;2.40;;
81191;SDS011;70665;47.652;-2.730;2023-07-24T01:03:54;11.15;;;2.75;;
81191;SDS011;70665;47.652;-2.730;2023-07-24T01:06:22;7.45;;;1.95;;
81191;SDS011;70665;47.652;-2.730;2023-07-24T01:08:49;7.85;;;2.45;;
81191;SDS011;70665;47.652;-2.730;2023-07-24T01:13:45;7.88;;;2.30;;
81191;SDS011;70665;47.652;-2.730;2023-07-24T01:16:21;5.50;;;2.50;;
81191;SDS011;70665;47.652;-2.730;2023-07-24T01:18:47;5.30;;;2.15;;
81191;SDS011;70665;47.652;-2.730;2023-07-24T01:21:15;9.45;;;2.33;;
81191;SDS011;70665;47.652;-2.730;2023-07-24T01:23:54;6.00;;;2.28;;
81191;SDS011;70665;47.652;-2.730;2023-07-24T01:28:56;6.00;;;2.38;;
81191;SDS011;70665;47.652;-2.730;2023-07-24T01:31:22;5.18;;;2.35;;
81191;SDS011;70665;47.652;-2.730;2023-07-24T01:33:48;6.13;;;2.50;;
81191;SDS011;70665;47.652;-2.730;2023-07-24T01:36:13;6.70;;;2.58;;
81191;SDS011;70665;47.652;-2.730;2023-07-24T01:38:40;4.85;;;2.03;;
81191;SDS011;70665;47.652;-2.730;2023-07-24T01:41:06;8.73;;;2.75;;
81191;SDS011;70665;47.652;-2.730;2023-07-24T01:45:58;7.82;;;2.20;;
81191;SDS011;70665;47.652;-2.730;2023-07-24T01:50:49;7.07;;;3.47;;
81191;SDS011;70665;47.652;-2.730;2023-07-24T01:55:41;7.40;;;2.38;;
81191;SDS011;70665;47.652;-2.730;2023-07-24T02:00:32;3.70;;;2.15;;
81191;SDS011;70665;47.652;-2.730;2023-07-24T02:05:23;7.68;;;2.78;;
81191;SDS011;70665;47.652;-2.730;2023-07-24T02:07:51;9.15;;;2.53;;
81191;SDS011;70665;47.652;-2.730;2023-07-24T02:12:42;11.20;;;2.45;;
81191;SDS011;70665;47.652;-2.730;2023-07-24T02:17:33;6.35;;;2.47;;
81191;SDS011;70665;47.652;-2.730;2023-07-24T02:19:59;9.80;;;2.88;;
81191;SDS011;70665;47.652;-2.730;2023-07-24T02:24:50;13.07;;;2.83;;
81191;SDS011;70665;47.652;-2.730;2023-07-24T02:29:52;11.13;;;2.95;;
81191;SDS011;70665;47.652;-2.730;2023-07-24T02:32:18;12.00;;;2.92;;
81191;SDS011;70665;47.652;-2.730;2023-07-24T02:34:46;8.82;;;2.65;;
81191;SDS011;70665;47.652;-2.730;2023-07-24T02:39:37;14.00;;;3.95;;
81191;SDS011;70665;47.652;-2.730;2023-07-24T02:44:29;9.60;;;3.10;;
81191;SDS011;70665;47.652;-2.730;2023-07-24T02:49:20;9.15;;;2.72;;
81191;SDS011;70665;47.652;-2.730;2023-07-24T02:54:11;9.93;;;3.25;;
81191;SDS011;70665;47.652;-2.730;2023-07-24T02:59:02;9.65;;;3.42;;
81191;SDS011;70665;47.652;-2.730;2023-07-24T03:03:53;6.95;;;2.58;;
81191;SDS011;70665;47.652;-2.730;2023-07-24T03:08:44;7.78;;;2.42;;
81191;SDS011;70665;47.652;-2.730;2023-07-24T03:13:35;8.38;;;2.63;;
81191;SDS011;70665;47.652;-2.730;2023-07-24T03:16:01;5.43;;;2.50;;
81191;SDS011;70665;47.652;-2.730;2023-07-24T03:20:52;10.25;;;2.90;;
81191;SDS011;70665;47.652;-2.730;2023-07-24T03:25:45;9.10;;;2.60;;
81191;SDS011;70665;47.652;-2.730;2023-07-24T03:28:10;11.27;;;2.75;;
81191;SDS011;70665;47.652;-2.730;2023-07-24T03:33:01;10.93;;;3.90;;
81191;SDS011;70665;47.652;-2.730;2023-07-24T03:37:53;5.00;;;2.03;;
81191;SDS011;70665;47.652;-2.730;2023-07-24T03:42:44;7.40;;;2.80;;
81191;SDS011;70665;47.652;-2.730;2023-07-24T03:47:35;8.57;;;2.72;;
81191;SDS011;70665;47.652;-2.730;2023-07-24T03:52:26;9.32;;;3.05;;
81191;SDS011;70665;47.652;-2.730;2023-07-24T03:57:17;11.50;;;2.65;;
81191;SDS011;70665;47.652;-2.730;2023-07-24T04:02:09;9.35;;;2.58;;
81191;SDS011;70665;47.652;-2.730;2023-07-24T04:07:00;8.45;;;2.55;;
81191;SDS011;70665;47.652;-2.730;2023-07-24T04:09:26;9.75;;;2.70;;
81191;SDS011;70665;47.652;-2.730;2023-07-24T04:14:17;12.00;;;2.83;;
81191;SDS011;70665;47.652;-2.730;2023-07-24T04:19:10;7.13;;;2.42;;
81191;SDS011;70665;47.652;-2.730;2023-07-24T04:24:01;10.68;;;2.35;;
81191;SDS011;70665;47.652;-2.730;2023-07-24T04:28:52;8.65;;;2.33;;
81191;SDS011;70665;47.652;-2.730;2023-07-24T04:33:43;15.52;;;2.70;;
81191;SDS011;70665;47.652;-2.730;2023-07-24T04:36:09;10.18;;;2.88;;
81191;SDS011;70665;47.652;-2.730;2023-07-24T04:41:00;15.85;;;3.05;;
81191;SDS011;70665;47.652;-2.730;2023-07-24T04:43:27;8.00;;;2.58;;
81191;SDS011;70665;47.652;-2.730;2023-07-24T04:45:53;10.68;;;2.90;;
81191;SDS011;70665;47.652;-2.730;2023-07-24T04:50:44;10.18;;;2.67;;
81191;SDS011;70665;47.652;-2.730;2023-07-24T04:55:35;9.65;;;2.65;;
81191;SDS011;70665;47.652;-2.730;2023-07-24T04:58:01;11.38;;;3.05;;
81191;SDS011;70665;47.652;-2.730;2023-07-24T05:02:52;10.25;;;2.80;;
81191;SDS011;70665;47.652;-2.730;2023-07-24T05:07:43;8.27;;;2.60;;
81191;SDS011;70665;47.652;-2.730;2023-07-24T05:12:34;7.60;;;3.03;;
81191;SDS011;70665;47.652;-2.730;2023-07-24T05:17:26;11.10;;;3.22;;
81191;SDS011;70665;47.652;-2.730;2023-07-24T05:22:17;9.95;;;2.92;;
81191;SDS011;70665;47.652;-2.730;2023-07-24T05:27:08;9.00;;;3.13;;
81191;SDS011;70665;47.652;-2.730;2023-07-24T05:31:59;10.20;;;3.10;;
81191;SDS011;70665;47.652;-2.730;2023-07-24T05:36:50;8.52;;;2.55;;
81191;SDS011;70665;47.652;-2.730;2023-07-24T05:41:42;10.55;;;2.83;;
81191;SDS011;70665;47.652;-2.730;2023-07-24T05:46:33;14.32;;;3.03;;
81191;SDS011;70665;47.652;-2.730;2023-07-24T05:51:26;8.32;;;2.58;;
81191;SDS011;70665;47.652;-2.730;2023-07-24T05:56:18;11.25;;;2.95;;
81191;SDS011;70665;47.652;-2.730;2023-07-24T06:01:09;11.90;;;2.42;;
81191;SDS011;70665;47.652;-2.730;2023-07-24T06:03:35;11.15;;;2.15;;
81191;SDS011;70665;47.652;-2.730;2023-07-24T06:06:01;10.80;;;2.25;;
81191;SDS011;70665;47.652;-2.730;2023-07-24T06:10:52;12.18;;;2.40;;
81191;SDS011;70665;47.652;-2.730;2023-07-24T06:15:44;10.07;;;2.20;;
81191;SDS011;70665;47.652;-2.730;2023-07-24T06:18:11;14.60;;;2.30;;
81191;SDS011;70665;47.652;-2.730;2023-07-24T06:23:02;11.02;;;2.33;;
81191;SDS011;70665;47.652;-2.730;2023-07-24T06:25:29;5.00;;;1.75;;
81191;SDS011;70665;47.652;-2.730;2023-07-24T06:27:55;8.05;;;2.08;;
81191;SDS011;70665;47.652;-2.730;2023-07-24T06:32:47;5.97;;;1.35;;
81191;SDS011;70665;47.652;-2.730;2023-07-24T06:35:12;9.40;;;1.83;;
81191;SDS011;70665;47.652;-2.730;2023-07-24T06:37:38;8.55;;;1.92;;
81191;SDS011;70665;47.652;-2.730;2023-07-24T06:42:30;8.23;;;2.30;;
81191;SDS011;70665;47.652;-2.730;2023-07-24T06:47:21;9.43;;;1.90;;
81191;SDS011;70665;47.652;-2.730;2023-07-24T06:52:12;7.30;;;2.15;;
81191;SDS011;70665;47.652;-2.730;2023-07-24T06:54:38;7.72;;;1.90;;
81191;SDS011;70665;47.652;-2.730;2023-07-24T06:57:04;6.90;;;2.10;;
81191;SDS011;70665;47.652;-2.730;2023-07-24T07:01:55;6.65;;;2.40;;
81191;SDS011;70665;47.652;-2.730;2023-07-24T07:04:21;9.27;;;2.15;;
81191;SDS011;70665;47.652;-2.730;2023-07-24T07:06:46;12.15;;;2.20;;
81191;SDS011;70665;47.652;-2.730;2023-07-24T07:09:12;11.45;;;2.15;;
81191;SDS011;70665;47.652;-2.730;2023-07-24T07:11:38;9.85;;;2.47;;
81191;SDS011;70665;47.652;-2.730;2023-07-24T07:14:04;8.73;;;2.70;;
81191;SDS011;70665;47.652;-2.730;2023-07-24T07:16:29;10.45;;;2.40;;
81191;SDS011;70665;47.652;-2.730;2023-07-24T07:18:55;9.65;;;2.10;;
81191;SDS011;70665;47.652;-2.730;2023-07-24T07:21:20;9.48;;;1.95;;
81191;SDS011;70665;47.652;-2.730;2023-07-24T07:23:46;10.35;;;2.55;;
81191;SDS011;70665;47.652;-2.730;2023-07-24T07:26:12;11.50;;;3.03;;
81191;SDS011;70665;47.652;-2.730;2023-07-24T07:28:37;11.45;;;2.03;;
81191;SDS011;70665;47.652;-2.730;2023-07-24T07:31:03;8.60;;;2.38;;
81191;SDS011;70665;47.652;-2.730;2023-07-24T07:33:29;9.35;;;2.03;;
81191;SDS011;70665;47.652;-2.730;2023-07-24T07:35:55;8.93;;;2.53;;
81191;SDS011;70665;47.652;-2.730;2023-07-24T07:38:20;5.85;;;1.52;;
81191;SDS011;70665;47.652;-2.730;2023-07-24T07:40:47;6.75;;;1.50;;
81191;SDS011;70665;47.652;-2.730;2023-07-24T07:43:13;4.78;;;1.60;;
81191;SDS011;70665;47.652;-2.730;2023-07-24T07:45:39;5.82;;;1.90;;
81191;SDS011;70665;47.652;-2.730;2023-07-24T07:48:04;4.75;;;1.50;;
81191;SDS011;70665;47.652;-2.730;2023-07-24T07:50:30;7.72;;;1.75;;
81191;SDS011;70665;47.652;-2.730;2023-07-24T07:52:57;9.23;;;1.92;;
81191;SDS011;70665;47.652;-2.730;2023-07-24T07:57:48;8.85;;;2.13;;
81191;SDS011;70665;47.652;-2.730;2023-07-24T08:00:14;6.53;;;2.10;;
81191;SDS011;70665;47.652;-2.730;2023-07-24T08:02:40;11.02;;;2.58;;
81191;SDS011;70665;47.652;-2.730;2023-07-24T08:07:32;8.48;;;2.00;;
81191;SDS011;70665;47.652;-2.730;2023-07-24T08:12:23;9.13;;;2.38;;
81191;SDS011;70665;47.652;-2.730;2023-07-24T08:14:49;11.38;;;2.70;;
81191;SDS011;70665;47.652;-2.730;2023-07-24T08:17:15;9.07;;;2.20;;
81191;SDS011;70665;47.652;-2.730;2023-07-24T08:19:41;9.88;;;1.73;;
81191;SDS011;70665;47.652;-2.730;2023-07-24T08:22:06;7.93;;;2.00;;
81191;SDS011;70665;47.652;-2.730;2023-07-24T08:24:35;8.98;;;3.05;;
81191;SDS011;70665;47.652;-2.730;2023-07-24T08:27:01;12.25;;;2.25;;
81191;SDS011;70665;47.652;-2.730;2023-07-24T08:29:27;8.05;;;2.53;;
81191;SDS011;70665;47.652;-2.730;2023-07-24T08:34:18;7.45;;;1.95;;
81191;SDS011;70665;47.652;-2.730;2023-07-24T08:36:43;4.43;;;2.10;;
81191;SDS011;70665;47.652;-2.730;2023-07-24T08:39:09;8.05;;;2.17;;
81191;SDS011;70665;47.652;-2.730;2023-07-24T08:41:36;11.85;;;2.92;;
81191;SDS011;70665;47.652;-2.730;2023-07-24T08:44:03;9.10;;;2.97;;
81191;SDS011;70665;47.652;-2.730;2023-07-24T08:46:36;12.23;;;2.08;;
81191;SDS011;70665;47.652;-2.730;2023-07-24T08:49:03;12.57;;;2.60;;
81191;SDS011;70665;47.652;-2.730;2023-07-24T08:51:29;15.55;;;3.28;;
81191;SDS011;70665;47.652;-2.730;2023-07-24T08:53:56;12.60;;;2.85;;
81191;SDS011;70665;47.652;-2.730;2023-07-24T08:56:22;15.57;;;2.92;;
81191;SDS011;70665;47.652;-2.730;2023-07-24T08:58:49;7.70;;;2.40;;
81191;SDS011;70665;47.652;-2.730;2023-07-24T09:01:14;11.70;;;2.90;;
81191;SDS011;70665;47.652;-2.730;2023-07-24T09:03:40;13.20;;;2.53;;
81191;SDS011;70665;47.652;-2.730;2023-07-24T09:06:06;12.30;;;3.28;;
81191;SDS011;70665;47.652;-2.730;2023-07-24T09:08:36;14.50;;;3.00;;
81191;SDS011;70665;47.652;-2.730;2023-07-24T09:11:06;12.85;;;3.05;;
81191;SDS011;70665;47.652;-2.730;2023-07-24T09:13:33;13.27;;;2.45;;
81191;SDS011;70665;47.652;-2.730;2023-07-24T09:16:00;12.02;;;2.67;;
81191;SDS011;70665;47.652;-2.730;2023-07-24T09:18:26;12.15;;;2.67;;
81191;SDS011;70665;47.652;-2.730;2023-07-24T09:20:52;12.10;;;2.97;;
81191;SDS011;70665;47.652;-2.730;2023-07-24T09:23:25;10.80;;;2.35;;
81191;SDS011;70665;47.652;-2.730;2023-07-24T09:25:55;12.13;;;2.83;;
81191;SDS011;70665;47.652;-2.730;2023-07-24T09:28:22;9.88;;;2.55;;
81191;SDS011;70665;47.652;-2.730;2023-07-24T09:30:54;8.88;;;2.10;;
81191;SDS011;70665;47.652;-2.730;2023-07-24T09:33:22;9.65;;;1.90;;
81191;SDS011;70665;47.652;-2.730;2023-07-24T09:35:59;7.25;;;1.95;;
81191;SDS011;70665;47.652;-2.730;2023-07-24T09:38:26;7.05;;;2.10;;
81191;SDS011;70665;47.652;-2.730;2023-07-24T09:40:52;9.73;;;2.35;;
81191;SDS011;70665;47.652;-2.730;2023-07-24T09:43:24;7.70;;;2.28;;
81191;SDS011;70665;47.652;-2.730;2023-07-24T09:45:52;7.97;;;2.30;;
81191;SDS011;70665;47.652;-2.730;2023-07-24T09:48:19;9.93;;;3.10;;
81191;SDS011;70665;47.652;-2.730;2023-07-24T09:50:46;10.90;;;2.45;;
81191;SDS011;70665;47.652;-2.730;2023-07-24T09:53:21;8.77;;;2.20;;
81191;SDS011;70665;47.652;-2.730;2023-07-24T09:58:31;7.00;;;2.10;;
81191;SDS011;70665;47.652;-2.730;2023-07-24T10:00:59;9.38;;;1.67;;
81191;SDS011;70665;47.652;-2.730;2023-07-24T10:03:39;4.28;;;1.55;;
81191;SDS011;70665;47.652;-2.730;2023-07-24T10:06:06;5.63;;;1.80;;
81191;SDS011;70665;47.652;-2.730;2023-07-24T10:08:37;6.63;;;1.55;;
81191;SDS011;70665;47.652;-2.730;2023-07-24T10:11:04;7.47;;;1.58;;
81191;SDS011;70665;47.652;-2.730;2023-07-24T10:13:30;6.43;;;2.05;;
81191;SDS011;70665;47.652;-2.730;2023-07-24T10:16:01;7.03;;;2.08;;
81191;SDS011;70665;47.652;-2.730;2023-07-24T10:18:30;6.93;;;2.00;;
81191;SDS011;70665;47.652;-2.730;2023-07-24T10:21:06;10.77;;;2.08;;
81191;SDS011;70665;47.652;-2.730;2023-07-24T10:23:36;6.40;;;1.77;;
81191;SDS011;70665;47.652;-2.730;2023-07-24T10:26:05;9.32;;;2.00;;
81191;SDS011;70665;47.652;-2.730;2023-07-24T10:28:33;11.57;;;2.25;;
81191;SDS011;70665;47.652;-2.730;2023-07-24T10:31:03;5.55;;;2.00;;
81191;SDS011;70665;47.652;-2.730;2023-07-24T10:33:34;5.85;;;1.70;;
81191;SDS011;70665;47.652;-2.730;2023-07-24T10:36:04;7.32;;;1.65;;
81191;SDS011;70665;47.652;-2.730;2023-07-24T10:38:39;4.75;;;1.42;;
81191;SDS011;70665;47.652;-2.730;2023-07-24T10:41:07;3.95;;;1.27;;
81191;SDS011;70665;47.652;-2.730;2023-07-24T10:43:43;3.03;;;1.10;;
81191;SDS011;70665;47.652;-2.730;2023-07-24T10:46:11;4.10;;;1.17;;
81191;SDS011;70665;47.652;-2.730;2023-07-24T10:48:41;6.32;;;1.45;;
81191;SDS011;70665;47.652;-2.730;2023-07-24T10:51:08;4.85;;;1.30;;
81191;SDS011;70665;47.652;-2.730;2023-07-24T10:53:37;5.63;;;1.50;;
81191;SDS011;70665;47.652;-2.730;2023-07-24T10:56:04;6.43;;;1.95;;
81191;SDS011;70665;47.652;-2.730;2023-07-24T10:58:31;4.57;;;1.70;;
81191;SDS011;70665;47.652;-2.730;2023-07-24T11:00:58;6.63;;;2.38;;
81191;SDS011;70665;47.652;-2.730;2023-07-24T11:03:24;6.47;;;1.02;;
81191;SDS011;70665;47.652;-2.730;2023-07-24T11:05:50;4.15;;;1.50;;
81191;SDS011;70665;47.652;-2.730;2023-07-24T11:08:17;4.28;;;2.00;;
81191;SDS011;70665;47.652;-2.730;2023-07-24T11:10:48;3.35;;;1.25;;
81191;SDS011;70665;47.652;-2.730;2023-07-24T11:13:15;5.10;;;1.42;;
81191;SDS011;70665;47.652;-2.730;2023-07-24T11:15:42;4.60;;;1.70;;
81191;SDS011;70665;47.652;-2.730;2023-07-24T11:18:07;4.38;;;1.85;;
81191;SDS011;70665;47.652;-2.730;2023-07-24T11:20:36;4.28;;;1.50;;
81191;SDS011;70665;47.652;-2.730;2023-07-24T11:23:03;7.13;;;2.00;;
81191;SDS011;70665;47.652;-2.730;2023-07-24T11:25:29;4.93;;;2.22;;
81191;SDS011;70665;47.652;-2.730;2023-07-24T11:27:55;9.40;;;2.33;;
81191;SDS011;70665;47.652;-2.730;2023-07-24T11:30:21;6.57;;;2.67;;
81191;SDS011;70665;47.652;-2.730;2023-07-24T11:32:47;6.60;;;2.05;;
81191;SDS011;70665;47.652;-2.730;2023-07-24T11:35:14;5.00;;;1.90;;
81191;SDS011;70665;47.652;-2.730;2023-07-24T11:37:40;7.03;;;2.13;;
81191;SDS011;70665;47.652;-2.730;2023-07-24T11:40:06;5.43;;;2.00;;
81191;SDS011;70665;47.652;-2.730;2023-07-24T11:42:53;8.18;;;2.38;;
81191;SDS011;70665;47.652;-2.730;2023-07-24T11:45:19;8.50;;;2.75;;
81191;SDS011;70665;47.652;-2.730;2023-07-24T11:47:45;9.93;;;2.45;;
81191;SDS011;70665;47.652;-2.730;2023-07-24T11:50:14;7.55;;;1.95;;
81191;SDS011;70665;47.652;-2.730;2023-07-24T11:52:41;9.40;;;2.53;;
81191;SDS011;70665;47.652;-2.730;2023-07-24T11:55:09;5.20;;;1.80;;
81191;SDS011;70665;47.652;-2.730;2023-07-24T11:57:36;7.53;;;2.60;;
81191;SDS011;70665;47.652;-2.730;2023-07-24T12:00:02;7.25;;;2.33;;
81191;SDS011;70665;47.652;-2.730;2023-07-24T12:02:28;10.45;;;2.20;;
81191;SDS011;70665;47.652;-2.730;2023-07-24T12:04:57;4.82;;;1.73;;
81191;SDS011;70665;47.652;-2.730;2023-07-24T12:07:28;5.03;;;1.70;;
81191;SDS011;70665;47.652;-2.730;2023-07-24T12:09:55;3.42;;;1.70;;
81191;SDS011;70665;47.652;-2.730;2023-07-24T12:12:21;5.90;;;1.65;;
81191;SDS011;70665;47.652;-2.730;2023-07-24T12:14:46;4.35;;;1.50;;
81191;SDS011;70665;47.652;-2.730;2023-07-24T12:17:17;4.75;;;1.92;;
81191;SDS011;70665;47.652;-2.730;2023-07-24T12:19:43;4.85;;;1.70;;
81191;SDS011;70665;47.652;-2.730;2023-07-24T12:22:09;2.75;;;1.52;;
81191;SDS011;70665;47.652;-2.730;2023-07-24T12:24:34;3.45;;;1.88;;
81191;SDS011;70665;47.652;-2.730;2023-07-24T12:27:00;8.18;;;2.05;;
81191;SDS011;70665;47.652;-2.730;2023-07-24T12:29:26;2.80;;;1.67;;
81191;SDS011;70665;47.652;-2.730;2023-07-24T12:31:51;6.65;;;2.10;;
81191;SDS011;70665;47.652;-2.730;2023-07-24T12:34:17;5.80;;;2.10;;
81191;SDS011;70665;47.652;-2.730;2023-07-24T12:36:42;8.02;;;2.30;;
81191;SDS011;70665;47.652;-2.730;2023-07-24T12:39:08;6.30;;;1.85;;
81191;SDS011;70665;47.652;-2.730;2023-07-24T12:41:34;6.53;;;2.28;;
81191;SDS011;70665;47.652;-2.730;2023-07-24T12:43:59;3.83;;;1.90;;
81191;SDS011;70665;47.652;-2.730;2023-07-24T12:46:25;5.30;;;1.58;;
81191;SDS011;70665;47.652;-2.730;2023-07-24T12:48:51;4.07;;;2.17;;
81191;SDS011;70665;47.652;-2.730;2023-07-24T12:51:16;5.97;;;1.90;;
81191;SDS011;70665;47.652;-2.730;2023-07-24T12:53:42;7.95;;;2.13;;
81191;SDS011;70665;47.652;-2.730;2023-07-24T12:56:07;6.15;;;2.13;;
81191;SDS011;70665;47.652;-2.730;2023-07-24T12:58:33;6.78;;;1.83;;
81191;SDS011;70665;47.652;-2.730;2023-07-24T13:00:59;3.83;;;1.83;;
81191;SDS011;70665;47.652;-2.730;2023-07-24T13:03:24;4.32;;;1.58;;
81191;SDS011;70665;47.652;-2.730;2023-07-24T13:05:50;3.35;;;1.70;;
81191;SDS011;70665;47.652;-2.730;2023-07-24T13:08:16;5.63;;;1.80;;
81191;SDS011;70665;47.652;-2.730;2023-07-24T13:10:41;4.43;;;1.70;;
81191;SDS011;70665;47.652;-2.730;2023-07-24T13:13:07;3.60;;;1.67;;
81191;SDS011;70665;47.652;-2.730;2023-07-24T13:15:34;6.57;;;1.90;;
81191;SDS011;70665;47.652;-2.730;2023-07-24T13:17:59;4.43;;;2.08;;
81191;SDS011;70665;47.652;-2.730;2023-07-24T13:20:25;6.63;;;1.67;;
81191;SDS011;70665;47.652;-2.730;2023-07-24T13:22:51;3.03;;;1.35;;
81191;SDS011;70665;47.652;-2.730;2023-07-24T13:25:16;2.92;;;1.30;;
81191;SDS011;70665;47.652;-2.730;2023-07-24T13:27:42;4.75;;;1.60;;
81191;SDS011;70665;47.652;-2.730;2023-07-24T13:30:08;3.00;;;1.50;;
81191;SDS011;70665;47.652;-2.730;2023-07-24T13:32:34;3.33;;;1.55;;
81191;SDS011;70665;47.652;-2.730;2023-07-24T13:35:00;8.35;;;1.73;;
81191;SDS011;70665;47.652;-2.730;2023-07-24T13:37:26;3.83;;;1.83;;
81191;SDS011;70665;47.652;-2.730;2023-07-24T13:39:51;6.82;;;2.25;;
81191;SDS011;70665;47.652;-2.730;2023-07-24T13:42:17;7.20;;;1.67;;
81191;SDS011;70665;47.652;-2.730;2023-07-24T13:44:42;6.05;;;1.60;;
81191;SDS011;70665;47.652;-2.730;2023-07-24T13:47:08;5.63;;;1.88;;
81191;SDS011;70665;47.652;-2.730;2023-07-24T13:49:34;5.43;;;1.40;;
81191;SDS011;70665;47.652;-2.730;2023-07-24T13:51:59;9.73;;;2.60;;
81191;SDS011;70665;47.652;-2.730;2023-07-24T13:54:25;2.85;;;1.52;;
81191;SDS011;70665;47.652;-2.730;2023-07-24T13:56:50;3.47;;;1.15;;
81191;SDS011;70665;47.652;-2.730;2023-07-24T13:59:17;2.83;;;1.25;;
81191;SDS011;70665;47.652;-2.730;2023-07-24T14:01:43;3.22;;;1.23;;
81191;SDS011;70665;47.652;-2.730;2023-07-24T14:04:09;2.47;;;1.10;;
81191;SDS011;70665;47.652;-2.730;2023-07-24T14:06:37;3.35;;;1.42;;
81191;SDS011;70665;47.652;-2.730;2023-07-24T14:09:02;1.67;;;1.00;;
81191;SDS011;70665;47.652;-2.730;2023-07-24T14:11:28;3.88;;;1.30;;
81191;SDS011;70665;47.652;-2.730;2023-07-24T14:13:54;3.08;;;1.10;;
81191;SDS011;70665;47.652;-2.730;2023-07-24T14:16:19;4.00;;;1.50;;
81191;SDS011;70665;47.652;-2.730;2023-07-24T14:18:45;3.42;;;1.83;;
81191;SDS011;70665;47.652;-2.730;2023-07-24T14:21:11;3.03;;;1.45;;
81191;SDS011;70665;47.652;-2.730;2023-07-24T14:23:36;2.35;;;1.25;;
81191;SDS011;70665;47.652;-2.730;2023-07-24T14:26:02;3.92;;;1.40;;
81191;SDS011;70665;47.652;-2.730;2023-07-24T14:28:28;2.05;;;1.10;;
81191;SDS011;70665;47.652;-2.730;2023-07-24T14:30:53;3.95;;;1.45;;
81191;SDS011;70665;47.652;-2.730;2023-07-24T14:33:19;4.13;;;1.20;;
81191;SDS011;70665;47.652;-2.730;2023-07-24T14:35:45;2.88;;;1.60;;
81191;SDS011;70665;47.652;-2.730;2023-07-24T14:38:10;3.55;;;1.40;;
81191;SDS011;70665;47.652;-2.730;2023-07-24T14:40:36;3.15;;;1.48;;
81191;SDS011;70665;47.652;-2.730;2023-07-24T14:43:01;4.38;;;1.70;;
81191;SDS011;70665;47.652;-2.730;2023-07-24T14:45:27;3.25;;;1.58;;
81191;SDS011;70665;47.652;-2.730;2023-07-24T14:47:53;2.97;;;1.25;;
81191;SDS011;70665;47.652;-2.730;2023-07-24T14:50:18;5.93;;;1.50;;
81191;SDS011;70665;47.652;-2.730;2023-07-24T14:52:44;5.45;;;1.50;;
81191;SDS011;70665;47.652;-2.730;2023-07-24T14:55:10;2.50;;;1.25;;
81191;SDS011;70665;47.652;-2.730;2023-07-24T14:57:35;3.55;;;1.70;;
81191;SDS011;70665;47.652;-2.730;2023-07-24T15:00:01;4.38;;;1.27;;
81191;SDS011;70665;47.652;-2.730;2023-07-24T15:02:27;3.10;;;1.50;;
81191;SDS011;70665;47.652;-2.730;2023-07-24T15:04:53;4.25;;;1.70;;
81191;SDS011;70665;47.652;-2.730;2023-07-24T15:07:19;4.65;;;1.63;;
81191;SDS011;70665;47.652;-2.730;2023-07-24T15:09:45;4.35;;;1.52;;
81191;SDS011;70665;47.652;-2.730;2023-07-24T15:12:10;3.25;;;1.67;;
81191;SDS011;70665;47.652;-2.730;2023-07-24T15:14:36;4.40;;;1.88;;
81191;SDS011;70665;47.652;-2.730;2023-07-24T15:17:02;3.65;;;1.67;;
81191;SDS011;70665;47.652;-2.730;2023-07-24T15:19:27;6.28;;;1.73;;
81191;SDS011;70665;47.652;-2.730;2023-07-24T15:21:53;3.28;;;1.40;;
81191;SDS011;70665;47.652;-2.730;2023-07-24T15:24:18;2.45;;;1.40;;
81191;SDS011;70665;47.652;-2.730;2023-07-24T15:26:44;3.47;;;1.40;;
81191;SDS011;70665;47.652;-2.730;2023-07-24T15:29:10;7.68;;;2.15;;
81191;SDS011;70665;47.652;-2.730;2023-07-24T15:31:37;7.38;;;1.77;;
81191;SDS011;70665;47.652;-2.730;2023-07-24T15:34:04;4.03;;;1.38;;
81191;SDS011;70665;47.652;-2.730;2023-07-24T15:36:30;5.05;;;2.10;;
81191;SDS011;70665;47.652;-2.730;2023-07-24T15:38:56;8.43;;;2.42;;
81191;SDS011;70665;47.652;-2.730;2023-07-24T15:41:21;9.73;;;2.22;;
81191;SDS011;70665;47.652;-2.730;2023-07-24T15:43:47;4.20;;;2.05;;
81191;SDS011;70665;47.652;-2.730;2023-07-24T15:46:13;5.57;;;1.80;;
81191;SDS011;70665;47.652;-2.730;2023-07-24T15:48:39;3.30;;;2.00;;
81191;SDS011;70665;47.652;-2.730;2023-07-24T15:51:04;4.97;;;2.05;;
81191;SDS011;70665;47.652;-2.730;2023-07-24T15:53:30;3.42;;;1.60;;
81191;SDS011;70665;47.652;-2.730;2023-07-24T15:55:56;4.18;;;1.88;;
81191;SDS011;70665;47.652;-2.730;2023-07-24T15:58:22;3.70;;;2.00;;
81191;SDS011;70665;47.652;-2.730;2023-07-24T16:00:47;2.92;;;1.98;;
81191;SDS011;70665;47.652;-2.730;2023-07-24T16:03:13;2.78;;;1.90;;
81191;SDS011;70665;47.652;-2.730;2023-07-24T16:05:39;3.35;;;1.83;;
81191;SDS011;70665;47.652;-2.730;2023-07-24T16:08:04;4.85;;;2.00;;
81191;SDS011;70665;47.652;-2.730;2023-07-24T16:10:31;4.28;;;2.10;;
81191;SDS011;70665;47.652;-2.730;2023-07-24T16:12:57;6.85;;;2.20;;
81191;SDS011;70665;47.652;-2.730;2023-07-24T16:15:22;6.50;;;2.35;;
81191;SDS011;70665;47.652;-2.730;2023-07-24T16:17:48;8.10;;;2.95;;
81191;SDS011;70665;47.652;-2.730;2023-07-24T16:20:13;7.15;;;2.85;;
81191;SDS011;70665;47.652;-2.730;2023-07-24T16:22:39;8.32;;;2.63;;
81191;SDS011;70665;47.652;-2.730;2023-07-24T16:25:05;9.35;;;2.50;;
81191;SDS011;70665;47.652;-2.730;2023-07-24T16:27:31;7.82;;;2.72;;
81191;SDS011;70665;47.652;-2.730;2023-07-24T16:29:56;8.02;;;2.42;;
81191;SDS011;70665;47.652;-2.730;2023-07-24T16:32:23;5.55;;;2.25;;
81191;SDS011;70665;47.652;-2.730;2023-07-24T16:34:49;5.60;;;2.45;;
81191;SDS011;70665;47.652;-2.730;2023-07-24T16:37:15;6.28;;;2.08;;
81191;SDS011;70665;47.652;-2.730;2023-07-24T16:39:41;6.05;;;2.20;;
81191;SDS011;70665;47.652;-2.730;2023-07-24T16:42:06;5.40;;;2.20;;
81191;SDS011;70665;47.652;-2.730;2023-07-24T16:44:32;6.32;;;2.00;;
81191;SDS011;70665;47.652;-2.730;2023-07-24T16:46:58;8.00;;;2.05;;
81191;SDS011;70665;47.652;-2.730;2023-07-24T16:49:23;5.53;;;2.00;;
81191;SDS011;70665;47.652;-2.730;2023-07-24T16:51:49;5.10;;;2.22;;
81191;SDS011;70665;47.652;-2.730;2023-07-24T16:54:14;5.30;;;2.00;;
81191;SDS011;70665;47.652;-2.730;2023-07-24T16:56:40;5.47;;;1.98;;
81191;SDS011;70665;47.652;-2.730;2023-07-24T16:59:06;3.58;;;1.80;;
81191;SDS011;70665;47.652;-2.730;2023-07-24T17:01:32;6.57;;;2.10;;
81191;SDS011;70665;47.652;-2.730;2023-07-24T17:03:58;3.45;;;1.40;;
81191;SDS011;70665;47.652;-2.730;2023-07-24T17:06:24;4.53;;;1.80;;
81191;SDS011;70665;47.652;-2.730;2023-07-24T17:08:49;4.35;;;1.65;;
81191;SDS011;70665;47.652;-2.730;2023-07-24T17:11:15;7.07;;;2.33;;
81191;SDS011;70665;47.652;-2.730;2023-07-24T17:13:42;3.22;;;1.40;;
81191;SDS011;70665;47.652;-2.730;2023-07-24T17:16:08;7.22;;;1.70;;
81191;SDS011;70665;47.652;-2.730;2023-07-24T17:18:34;3.35;;;1.67;;